Time;durP1;ratioP1;P1;durP2;ratioP2;P2;SDS_P1;SDS_P2;PMS_P1;PMS_P2;Temp;Humidity;BMP_temperature;BMP_pressure;BME280_temperature;BME280_humidity;BME280_pressure;Samples;Min_cycle;Max_cycle;Signal;HPM_P1;HPM_P2
2023/03/02 00:01:23;;;;;;;;;;;;;;;0.74;73.29;98431.03;7385413;19;19929;-71
2023/03/02 00:03:50;;;;;;;;;;;;;;;0.70;73.66;98439.13;7383328;19;19941;-71
2023/03/02 00:06:16;;;;;;;;;;;;;;;0.68;73.77;98436.59;7389474;19;19938;-71
2023/03/02 00:08:43;;;;;;;;;;;;;;;0.68;73.70;98440.97;7388032;19;19923;-71
2023/03/02 00:11:10;;;;;;;;;;;;;;;0.63;73.76;98436.03;7387374;19;19935;-71
2023/03/02 00:13:36;;;;;;;;;;;;;;;0.60;73.93;98433.63;7386140;19;19930;-71
2023/03/02 00:16:03;;;;;;;;;;;;;;;0.56;73.98;98429.53;7387674;19;19914;-71
2023/03/02 00:18:30;;;;;;;;;;;;;;;0.56;74.25;98432.97;7389921;19;19929;-71
2023/03/02 00:20:56;;;;;;;;;;;;;;;0.53;74.35;98430.56;7384083;19;19926;-71
2023/03/02 00:23:23;;;;;;;;;;;;;;;0.55;74.32;98425.25;7386404;19;19911;-72
2023/03/02 00:25:49;;;;;;;;;;;;;;;0.55;74.40;98430.44;7387363;19;19930;-71
2023/03/02 00:28:16;;;;;;;;;;;;;;;0.55;74.66;98427.84;7391612;19;20306;-71
2023/03/02 00:30:43;;;;;;;;;;;;;;;0.54;74.60;98419.22;7391230;19;19925;-71
2023/03/02 00:33:10;;;;;;;;;;;;;;;0.55;74.40;98420.03;7385350;19;20286;-71
2023/03/02 00:35:40;;;;;;;;;;;;;;;0.57;74.46;98419.00;7388403;19;19942;-71
2023/03/02 00:38:07;;;;;;;;;;;;;;;0.60;74.29;98420.59;7386533;19;19918;-71
2023/03/02 00:40:34;;;;;;;;;;;;;;;0.59;74.21;98419.75;7385960;19;19947;-71
2023/03/02 00:43:01;;;;;;;;;;;;;;;0.63;74.26;98420.41;7382754;19;19914;-71
2023/03/02 00:45:27;;;;;;;;;;;;;;;0.60;74.32;98415.38;7388568;19;19978;-71
2023/03/02 00:47:54;;;;;;;;;;;;;;;0.59;74.33;98414.56;7382101;19;19918;-71
2023/03/02 00:50:21;;;;;;;;;;;;;;;0.56;74.29;98417.34;7386304;19;19918;-71
2023/03/02 00:52:47;;;;;;;;;;;;;;;0.51;74.50;98414.19;7383788;19;19918;-71
2023/03/02 00:55:14;;;;;;;;;;;;;;;0.49;74.70;98416.03;7387388;19;20350;-71
2023/03/02 00:57:40;;;;;;;;;;;;;;;0.43;74.59;98412.03;7392053;19;20287;-71
2023/03/02 01:00:07;;;;;;;;;;;;;;;0.39;74.58;98414.91;7382759;19;19925;-71
2023/03/02 01:02:42;;;;;;;;;;;;;;;0.34;74.86;98410.00;7384476;19;19952;-71
2023/03/02 01:05:12;;;;;;;;;;;;;;;0.34;74.89;98419.53;7384684;19;19922;-71
2023/03/02 01:07:39;;;;;;;;;;;;;;;0.30;75.16;98408.50;7387464;19;19918;-71
2023/03/02 01:10:06;;;;;;;;;;;;;;;0.30;75.22;98416.28;7383215;19;21595;-71
2023/03/02 01:12:32;;;;;;;;;;;;;;;0.28;75.41;98407.72;7383132;19;19941;-71
2023/03/02 01:14:59;;;;;;;;;;;;;;;0.26;75.43;98403.56;7385215;19;19917;-71
2023/03/02 01:17:25;;;;;;;;;;;;;;;0.22;75.36;98403.72;7387143;19;19921;-71
2023/03/02 01:19:53;;;;;;;;;;;;;;;0.21;75.60;98399.47;7387737;19;19914;-71
2023/03/02 01:22:20;;;;;;;;;;;;;;;0.19;75.51;98396.13;7386640;19;19918;-71
2023/03/02 01:24:47;;;;;;;;;;;;;;;0.16;75.64;98395.47;7388543;19;19944;-71
2023/03/02 01:27:14;;;;;;;;;;;;;;;0.15;75.63;98389.41;7385966;19;19918;-71
2023/03/02 01:29:40;;;;;;;;;;;;;;;0.14;75.93;98392.13;7387596;19;19922;-71
2023/03/02 01:32:07;;;;;;;;;;;;;;;0.17;75.99;98399.72;7384577;19;20339;-71
2023/03/02 01:34:34;;;;;;;;;;;;;;;0.17;75.92;98392.75;7388105;19;19990;-72
2023/03/02 01:37:00;;;;;;;;;;;;;;;0.17;75.95;98389.31;7382564;19;19937;-71
2023/03/02 01:39:27;;;;;;;;;;;;;;;0.15;75.94;98386.81;7385366;19;19929;-71
2023/03/02 01:41:54;;;;;;;;;;;;;;;0.14;76.15;98384.31;7384504;19;19954;-71
2023/03/02 01:44:40;;;;;;;;;;;;;;;0.12;76.02;98375.75;7385244;19;19927;-71
2023/03/02 01:47:15;;;;;;;;;;;;;;;0.14;76.12;98373.91;7382278;19;19961;-72
2023/03/02 01:49:50;;;;;;;;;;;;;;;0.16;76.21;98372.88;7383161;19;20422;-71
2023/03/02 01:52:17;;;;;;;;;;;;;;;0.17;76.15;98374.53;7381234;19;20383;-71
2023/03/02 01:54:43;;;;;;;;;;;;;;;0.13;76.21;98374.81;7381569;19;19918;-71
2023/03/02 01:57:10;;;;;;;;;;;;;;;0.14;76.35;98363.50;7383474;19;19954;-71
2023/03/02 01:59:37;;;;;;;;;;;;;;;0.15;76.18;98365.16;7382392;19;19926;-72
2023/03/02 02:02:04;;;;;;;;;;;;;;;0.20;76.36;98368.31;7379066;19;19923;-71
2023/03/02 02:04:30;;;;;;;;;;;;;;;0.21;76.20;98362.19;7386795;19;20405;-71
2023/03/02 02:06:59;;;;;;;;;;;;;;;0.22;76.17;98358.69;7379850;19;20265;-71
2023/03/02 02:09:26;;;;;;;;;;;;;;;0.21;76.04;98354.38;7382256;19;19927;-71
2023/03/02 02:11:53;;;;;;;;;;;;;;;0.21;76.08;98352.63;7377102;19;19918;-72
2023/03/02 02:14:20;;;;;;;;;;;;;;;0.18;76.16;98354.56;7377943;19;19910;-72
2023/03/02 02:16:46;;;;;;;;;;;;;;;0.17;76.19;98347.69;7370576;19;20033;-71
2023/03/02 02:19:19;;;;;;;;;;;;;;;0.14;76.32;98351.31;7376175;19;20435;-71
2023/03/02 02:21:46;;;;;;;;;;;;;;;0.14;76.20;98345.28;7380990;19;19918;-71
2023/03/02 02:24:15;;;;;;;;;;;;;;;0.16;76.28;98340.84;7372741;19;20331;-71
2023/03/02 02:26:49;;;;;;;;;;;;;;;0.14;75.99;98345.28;7383237;19;19914;-71
2023/03/02 02:29:21;;;;;;;;;;;;;;;0.16;76.09;98341.66;7382056;19;20375;-71
2023/03/02 02:31:50;;;;;;;;;;;;;;;0.15;76.09;98342.56;7386670;19;19911;-71
2023/03/02 02:34:21;;;;;;;;;;;;;;;0.17;76.18;98342.50;7381752;19;19915;-71
2023/03/02 02:36:51;;;;;;;;;;;;;;;0.12;76.09;98341.94;7384833;19;19922;-72
2023/03/02 02:39:23;;;;;;;;;;;;;;;0.08;76.09;98338.69;7381324;19;19918;-71
2023/03/02 02:41:50;;;;;;;;;;;;;;;0.07;76.24;98337.00;7384892;19;19918;-71
2023/03/02 02:44:17;;;;;;;;;;;;;;;0.05;76.37;98332.81;7384071;19;19926;-71
2023/03/02 02:46:44;;;;;;;;;;;;;;;0.05;76.38;98332.81;7387349;19;19915;-71
2023/03/02 02:49:30;;;;;;;;;;;;;;;0.04;76.44;98331.97;7382801;19;19918;-71
2023/03/02 02:51:57;;;;;;;;;;;;;;;0.01;76.49;98331.34;7384062;19;19925;-71
2023/03/02 02:54:24;;;;;;;;;;;;;;;0.01;76.57;98329.56;7387513;19;19929;-71
2023/03/02 02:56:51;;;;;;;;;;;;;;;0.01;76.63;98339.13;7387669;19;20324;-71
2023/03/02 02:59:28;;;;;;;;;;;;;;;-0.01;76.71;98331.41;7387382;19;20376;-71
2023/03/02 03:01:57;;;;;;;;;;;;;;;-0.06;76.75;98331.69;7387568;19;19918;-71
2023/03/02 03:04:28;;;;;;;;;;;;;;;-0.06;76.83;98331.69;7389822;19;19925;-71
2023/03/02 03:06:59;;;;;;;;;;;;;;;-0.07;76.82;98327.41;7385783;19;19929;-71
2023/03/02 03:09:26;;;;;;;;;;;;;;;-0.12;76.91;98332.06;7387114;19;19932;-71
2023/03/02 03:11:56;;;;;;;;;;;;;;;-0.15;76.96;98334.84;7388774;19;19961;-71
2023/03/02 03:14:25;;;;;;;;;;;;;;;-0.16;77.07;98327.13;7387460;19;19930;-71
2023/03/02 03:16:52;;;;;;;;;;;;;;;-0.17;77.08;98322.84;7387519;19;20309;-71
2023/03/02 03:19:24;;;;;;;;;;;;;;;-0.20;76.96;98328.22;7386408;19;20403;-71
2023/03/02 03:21:52;;;;;;;;;;;;;;;-0.25;77.12;98324.13;7385812;19;20355;-71
2023/03/02 03:24:20;;;;;;;;;;;;;;;-0.28;77.04;98321.72;7382149;19;19935;-71
2023/03/02 03:26:47;;;;;;;;;;;;;;;-0.34;77.22;98319.47;7387457;19;19915;-71
2023/03/02 03:29:14;;;;;;;;;;;;;;;-0.35;77.20;98317.78;7385216;19;19922;-71
2023/03/02 03:31:41;;;;;;;;;;;;;;;-0.38;77.26;98315.38;7386875;19;19919;-71
2023/03/02 03:34:09;;;;;;;;;;;;;;;-0.40;77.33;98316.38;7382560;19;19915;-71
2023/03/02 03:36:36;;;;;;;;;;;;;;;-0.42;77.42;98308.69;7389265;19;19927;-71
2023/03/02 03:39:04;;;;;;;;;;;;;;;-0.43;77.44;98316.56;7385476;19;19919;-71
2023/03/02 03:41:32;;;;;;;;;;;;;;;-0.45;77.38;98317.50;7384330;19;19981;-71
2023/03/02 03:43:59;;;;;;;;;;;;;;;-0.46;77.46;98318.41;7381810;19;19914;-71
2023/03/02 03:46:28;;;;;;;;;;;;;;;-0.49;77.62;98323.78;7387441;19;19922;-71
2023/03/02 03:48:56;;;;;;;;;;;;;;;-0.52;77.67;98329.16;7387170;19;19918;-71
2023/03/02 03:51:23;;;;;;;;;;;;;;;-0.53;77.84;98329.22;7386147;19;20282;-71
2023/03/02 03:53:58;;;;;;;;;;;;;;;-0.53;78.01;98322.28;7385096;19;20284;-71
2023/03/02 03:56:32;;;;;;;;;;;;;;;-0.54;77.82;98320.59;7386212;19;19914;-72
2023/03/02 03:59:05;;;;;;;;;;;;;;;-0.52;77.86;98331.75;7384529;19;19944;-71
2023/03/02 04:01:37;;;;;;;;;;;;;;;-0.50;77.75;98334.25;7379598;19;19918;-71
2023/03/02 04:04:05;;;;;;;;;;;;;;;-0.50;78.02;98327.31;7383626;19;19918;-71
2023/03/02 04:06:32;;;;;;;;;;;;;;;-0.48;78.04;98337.59;7389001;19;19930;-71
2023/03/02 04:09:03;;;;;;;;;;;;;;;-0.53;78.06;98335.25;7384997;19;19922;-71
2023/03/02 04:11:32;;;;;;;;;;;;;;;-0.49;78.11;98334.19;7379602;19;19929;-71
2023/03/02 04:13:58;;;;;;;;;;;;;;;-0.52;77.97;98341.31;7380653;19;19930;-71
2023/03/02 04:16:25;;;;;;;;;;;;;;;-0.51;77.80;98337.78;7380375;19;20354;-71
2023/03/02 04:18:52;;;;;;;;;;;;;;;-0.53;77.96;98337.03;7388448;19;19990;-71
2023/03/02 04:21:19;;;;;;;;;;;;;;;-0.56;77.91;98343.25;7385000;19;19926;-71
2023/03/02 04:23:46;;;;;;;;;;;;;;;-0.61;78.14;98340.06;7387814;19;20099;-71
2023/03/02 04:26:12;;;;;;;;;;;;;;;-0.59;78.02;98340.81;7384007;19;20601;-71
2023/03/02 04:28:39;;;;;;;;;;;;;;;-0.56;78.02;98345.00;7387062;19;19958;-71
2023/03/02 04:31:05;;;;;;;;;;;;;;;-0.61;78.04;98342.66;7375329;19;20317;-71
2023/03/02 04:33:32;;;;;;;;;;;;;;;-0.58;78.07;98346.84;7383561;19;19930;-71
2023/03/02 04:35:59;;;;;;;;;;;;;;;-0.65;78.19;98343.78;7387266;19;19929;-71
2023/03/02 04:38:28;;;;;;;;;;;;;;;-0.64;78.21;98344.59;7386233;19;19933;-71
2023/03/02 04:40:55;;;;;;;;;;;;;;;-0.66;78.37;98347.28;7386847;19;19918;-71
2023/03/02 04:43:22;;;;;;;;;;;;;;;-0.65;78.35;98338.56;7385325;19;20445;-71
2023/03/02 04:45:49;;;;;;;;;;;;;;;-0.71;78.31;98339.75;7388982;19;19918;-71
2023/03/02 04:48:16;;;;;;;;;;;;;;;-0.68;78.50;98346.53;7378905;19;19986;-72
2023/03/02 04:50:42;;;;;;;;;;;;;;;-0.69;78.37;98342.25;7388343;19;19919;-71
2023/03/02 04:53:10;;;;;;;;;;;;;;;-0.70;78.47;98340.59;7380683;19;19982;-71
2023/03/02 04:55:37;;;;;;;;;;;;;;;-0.73;78.70;98345.97;7386252;19;20459;-71
2023/03/02 04:58:04;;;;;;;;;;;;;;;-0.74;78.61;98347.72;7380463;19;19918;-71
2023/03/02 05:00:32;;;;;;;;;;;;;;;-0.74;78.51;98337.34;7387084;19;19918;-71
2023/03/02 05:03:00;;;;;;;;;;;;;;;-0.77;78.52;98347.03;7380474;19;19923;-71
2023/03/02 05:05:27;;;;;;;;;;;;;;;-0.79;78.58;98343.69;7383624;19;22210;-71
2023/03/02 05:07:53;;;;;;;;;;;;;;;-0.81;78.72;98342.97;7387518;19;19942;-71
2023/03/02 05:10:20;;;;;;;;;;;;;;;-0.83;78.80;98337.00;7384815;19;19923;-71
2023/03/02 05:13:09;;;;;;;;;;;;;;;-0.88;78.73;98343.28;7387027;19;20262;-71
2023/03/02 05:15:35;;;;;;;;;;;;;;;-0.89;78.69;98336.44;7388525;19;19919;-71
2023/03/02 05:18:02;;;;;;;;;;;;;;;-0.89;78.89;98345.97;7385278;19;20669;-72
2023/03/02 05:20:30;;;;;;;;;;;;;;;-0.87;79.01;98341.50;7387513;19;19910;-72
2023/03/02 05:22:58;;;;;;;;;;;;;;;-0.86;78.85;98339.78;7378528;19;19918;-72
2023/03/02 05:25:25;;;;;;;;;;;;;;;-0.90;79.04;98339.94;7384168;19;20397;-72
2023/03/02 05:27:51;;;;;;;;;;;;;;;-0.86;78.82;98334.59;7387574;19;19923;-72
2023/03/02 05:30:18;;;;;;;;;;;;;;;-0.88;78.71;98332.91;7383867;19;19918;-72
2023/03/02 05:32:45;;;;;;;;;;;;;;;-0.91;78.68;98334.84;7386702;19;20255;-72
2023/03/02 05:35:12;;;;;;;;;;;;;;;-0.95;78.59;98334.19;7382201;19;19925;-72
2023/03/02 05:37:41;;;;;;;;;;;;;;;-0.97;78.71;98330.81;7384732;19;19915;-72
2023/03/02 05:40:08;;;;;;;;;;;;;;;-1.01;78.61;98334.50;7380321;19;19921;-72
2023/03/02 05:42:35;;;;;;;;;;;;;;;-1.01;78.59;98334.50;7384265;19;19910;-72
2023/03/02 05:45:05;;;;;;;;;;;;;;;-1.01;78.65;98331.06;7386274;19;19946;-72
2023/03/02 05:47:32;;;;;;;;;;;;;;;-1.02;78.95;98340.63;7378262;19;19926;-72
2023/03/02 05:49:59;;;;;;;;;;;;;;;-1.01;78.77;98334.50;7382687;19;19916;-71
2023/03/02 05:52:25;;;;;;;;;;;;;;;-1.02;78.91;98338.03;7376412;19;19922;-71
2023/03/02 05:54:52;;;;;;;;;;;;;;;-1.03;78.88;98344.13;7383585;19;19922;-71
2023/03/02 05:57:18;;;;;;;;;;;;;;;-1.01;78.81;98351.84;7379100;19;19923;-72
2023/03/02 05:59:45;;;;;;;;;;;;;;;-1.05;79.04;98339.94;7385744;19;19945;-72
2023/03/02 06:02:12;;;;;;;;;;;;;;;-1.03;79.08;98348.47;7386132;19;20371;-71
2023/03/02 06:04:41;;;;;;;;;;;;;;;-1.04;79.22;98346.81;7392104;19;19918;-72
2023/03/02 06:07:09;;;;;;;;;;;;;;;-1.06;79.29;98346.88;7386160;19;19943;-71
2023/03/02 06:09:37;;;;;;;;;;;;;;;-1.11;79.35;98346.31;7391295;19;20271;-71
2023/03/02 06:12:04;;;;;;;;;;;;;;;-1.08;79.23;98356.50;7383608;19;19978;-72
2023/03/02 06:14:31;;;;;;;;;;;;;;;-1.06;79.18;98359.88;7390354;19;19934;-72
2023/03/02 06:16:58;;;;;;;;;;;;;;;-1.09;79.21;98362.63;7389942;19;19998;-72
2023/03/02 06:19:24;;;;;;;;;;;;;;;-1.09;79.14;98362.63;7386601;19;19923;-71
2023/03/02 06:21:51;;;;;;;;;;;;;;;-1.06;79.21;98370.25;7391967;19;19937;-72
2023/03/02 06:24:18;;;;;;;;;;;;;;;-1.01;79.23;98370.00;7386220;19;19914;-71
2023/03/02 06:26:45;;;;;;;;;;;;;;;-0.99;79.38;98368.19;7390897;19;19925;-71
2023/03/02 06:29:11;;;;;;;;;;;;;;;-0.94;79.34;98376.56;7383633;19;19930;-71
2023/03/02 06:31:38;;;;;;;;;;;;;;;-0.88;79.61;98377.03;7388317;19;19951;-71
2023/03/02 06:34:05;;;;;;;;;;;;;;;-0.81;79.86;98369.78;7390423;19;19922;-71
2023/03/02 06:36:32;;;;;;;;;;;;;;;-0.72;79.87;98378.81;7390143;19;19930;-72
2023/03/02 06:38:59;;;;;;;;;;;;;;;-0.64;79.88;98374.00;7388855;19;19937;-72
2023/03/02 06:41:26;;;;;;;;;;;;;;;-0.55;80.30;98375.28;7389368;19;19918;-71
2023/03/02 06:43:52;;;;;;;;;;;;;;;-0.48;80.03;98374.81;7389473;19;19934;-71
2023/03/02 06:46:19;;;;;;;;;;;;;;;-0.39;80.03;98383.06;7384550;19;19940;-72
2023/03/02 06:48:45;;;;;;;;;;;;;;;-0.32;80.01;98372.19;7391601;19;19942;-71
2023/03/02 06:51:12;;;;;;;;;;;;;;;-0.31;79.68;98375.66;7387462;19;19921;-71
2023/03/02 06:53:39;;;;;;;;;;;;;;;-0.28;79.70;98376.31;7390531;19;20262;-71
2023/03/02 06:56:06;;;;;;;;;;;;;;;-0.27;79.59;98377.97;7390815;19;19926;-71
2023/03/02 06:58:32;;;;;;;;;;;;;;;-0.25;79.57;98386.53;7389432;19;19918;-71
2023/03/02 07:00:59;;;;;;;;;;;;;;;-0.31;79.17;98389.47;7387681;19;19929;-71
2023/03/02 07:03:26;;;;;;;;;;;;;;;-0.26;79.26;98390.06;7382229;19;19915;-72
2023/03/02 07:05:53;;;;;;;;;;;;;;;-0.17;79.47;98391.28;7391853;19;19929;-71
2023/03/02 07:08:19;;;;;;;;;;;;;;;-0.10;79.54;98400.41;7386081;19;20406;-71
2023/03/02 07:10:46;;;;;;;;;;;;;;;-0.02;79.83;98393.00;7390716;19;20350;-71
2023/03/02 07:13:12;;;;;;;;;;;;;;;-0.11;79.25;98401.31;7384847;19;19922;-71
2023/03/02 07:15:39;;;;;;;;;;;;;;;0.04;79.35;98393.56;7390944;19;19925;-71
2023/03/02 07:18:06;;;;;;;;;;;;;;;0.16;79.61;98388.50;7388197;19;19914;-71
2023/03/02 07:20:33;;;;;;;;;;;;;;;0.21;79.36;98390.81;7390161;19;19922;-71
2023/03/02 07:22:59;;;;;;;;;;;;;;;0.36;79.58;98395.09;7388694;19;19926;-71
2023/03/02 07:25:26;;;;;;;;;;;;;;;0.43;79.51;98395.59;7391093;19;19922;-71
2023/03/02 07:27:52;;;;;;;;;;;;;;;0.58;79.86;98396.41;7396327;19;19925;-71
2023/03/02 07:30:20;;;;;;;;;;;;;;;0.66;79.46;98394.22;7389856;19;19922;-71
2023/03/02 07:32:46;;;;;;;;;;;;;;;0.71;78.45;98399.97;7391098;19;19957;-71
2023/03/02 07:35:13;;;;;;;;;;;;;;;0.86;78.61;98395.59;7381659;19;19914;-72
2023/03/02 07:37:40;;;;;;;;;;;;;;;0.96;78.31;98403.69;7389264;19;20351;-71
2023/03/02 07:40:06;;;;;;;;;;;;;;;1.12;78.51;98393.97;7389805;19;19923;-71
2023/03/02 07:42:33;;;;;;;;;;;;;;;1.12;76.93;98404.38;7387083;19;19933;-71
2023/03/02 07:45:03;;;;;;;;;;;;;;;1.20;76.07;98403.91;7386394;19;20422;-72
2023/03/02 07:47:30;;;;;;;;;;;;;;;1.33;75.82;98402.19;7387604;19;20367;-71
2023/03/02 07:49:56;;;;;;;;;;;;;;;1.33;74.95;98403.97;7384176;19;19922;-71
2023/03/02 07:52:23;;;;;;;;;;;;;;;1.54;75.06;98403.44;7380222;19;19928;-71
2023/03/02 07:54:52;;;;;;;;;;;;;;;1.55;74.78;98401.66;7387498;19;19921;-71
2023/03/02 07:57:19;;;;;;;;;;;;;;;1.63;74.37;98407.22;7385504;19;20511;-71
2023/03/02 07:59:45;;;;;;;;;;;;;;;1.68;74.58;98406.94;7390710;19;20298;-71
2023/03/02 08:02:13;;;;;;;;;;;;;;;1.97;74.02;98408.50;7382470;19;20267;-71
2023/03/02 08:04:40;;;;;;;;;;;;;;;2.12;73.63;98406.63;7390465;19;19919;-71
2023/03/02 08:07:06;;;;;;;;;;;;;;;2.23;73.23;98402.47;7387482;19;19922;-71
2023/03/02 08:09:33;;;;;;;;;;;;;;;2.25;72.49;98404.03;7385666;19;19932;-71
2023/03/02 08:11:59;;;;;;;;;;;;;;;2.38;72.66;98412.72;7388608;19;19929;-71
2023/03/02 08:14:26;;;;;;;;;;;;;;;2.40;72.43;98405.63;7385521;19;19930;-71
2023/03/02 08:16:53;;;;;;;;;;;;;;;2.53;72.46;98413.47;7388842;19;19922;-71
2023/03/02 08:19:19;;;;;;;;;;;;;;;2.55;71.69;98413.34;7386769;19;19919;-71
2023/03/02 08:21:46;;;;;;;;;;;;;;;2.70;71.74;98399.25;7389921;19;19918;-71
2023/03/02 08:24:12;;;;;;;;;;;;;;;2.97;71.85;98406.94;7381277;19;19925;-71
2023/03/02 08:26:39;;;;;;;;;;;;;;;3.01;70.78;98400.56;7386515;19;19922;-71
2023/03/02 08:29:05;;;;;;;;;;;;;;;3.06;70.30;98414.16;7389737;19;19915;-71
2023/03/02 08:31:32;;;;;;;;;;;;;;;3.35;70.58;98406.03;7383523;19;19922;-71
2023/03/02 08:33:59;;;;;;;;;;;;;;;3.58;70.27;98407.00;7389302;19;19915;-71
2023/03/02 08:36:26;;;;;;;;;;;;;;;3.88;70.91;98406.53;7386361;19;19925;-72
2023/03/02 08:38:52;;;;;;;;;;;;;;;4.21;68.93;98397.09;7387283;19;19929;-72
2023/03/02 08:41:20;;;;;;;;;;;;;;;4.49;67.25;98390.63;7383279;19;20363;-72
2023/03/02 08:43:46;;;;;;;;;;;;;;;4.84;67.34;98387.06;7386528;19;20301;-72
2023/03/02 08:46:14;;;;;;;;;;;;;;;5.13;65.34;98383.97;7384065;19;19924;-71
2023/03/02 08:48:41;;;;;;;;;;;;;;;5.28;64.81;98385.38;7391089;19;19955;-71
2023/03/02 08:51:11;;;;;;;;;;;;;;;5.13;63.65;98382.16;7386951;19;20266;-71
2023/03/02 08:53:39;;;;;;;;;;;;;;;5.41;65.16;98370.31;7386044;19;20378;-71
2023/03/02 08:56:19;;;;;;;;;;;;;;;5.29;62.55;98373.91;7387906;19;19918;-71
2023/03/02 08:58:49;;;;;;;;;;;;;;;5.41;62.93;98377.34;7385657;19;19956;-71
2023/03/02 09:01:17;;;;;;;;;;;;;;;5.68;63.59;98371.66;7381513;19;19910;-71
2023/03/02 09:03:44;;;;;;;;;;;;;;;5.92;62.94;98377.56;7386822;19;20095;-71
2023/03/02 09:06:10;;;;;;;;;;;;;;;6.13;62.15;98371.50;7388175;19;19921;-71
2023/03/02 09:08:37;;;;;;;;;;;;;;;5.89;60.81;98363.81;7386027;19;19914;-72
2023/03/02 09:11:04;;;;;;;;;;;;;;;6.05;62.02;98366.03;7388970;19;19933;-71
2023/03/02 09:13:30;;;;;;;;;;;;;;;6.28;61.46;98369.38;7383064;19;19934;-71
2023/03/02 09:15:57;;;;;;;;;;;;;;;6.38;60.46;98368.47;7383034;19;19918;-72
2023/03/02 09:18:24;;;;;;;;;;;;;;;6.36;60.44;98365.16;7382647;19;19929;-71
2023/03/02 09:20:51;;;;;;;;;;;;;;;6.45;61.35;98360.06;7388478;19;19918;-71
2023/03/02 09:23:18;;;;;;;;;;;;;;;6.62;61.10;98359.47;7383001;19;19915;-71
2023/03/02 09:25:46;;;;;;;;;;;;;;;6.61;59.95;98357.81;7390829;19;19919;-72
2023/03/02 09:28:13;;;;;;;;;;;;;;;6.77;59.93;98359.97;7385553;19;19914;-72
2023/03/02 09:30:40;;;;;;;;;;;;;;;6.49;58.82;98359.69;7386251;19;20264;-71
2023/03/02 09:33:07;;;;;;;;;;;;;;;6.73;58.75;98363.81;7383262;19;20025;-71
2023/03/02 09:35:33;;;;;;;;;;;;;;;6.47;58.63;98358.16;7389673;19;20327;-72
2023/03/02 09:38:00;;;;;;;;;;;;;;;6.28;59.26;98362.34;7390331;19;20675;-71
2023/03/02 09:40:27;;;;;;;;;;;;;;;6.15;59.78;98362.53;7393273;19;20245;-71
2023/03/02 09:43:03;;;;;;;;;;;;;;;5.72;61.30;98363.41;7390394;19;20356;-71
2023/03/02 09:45:47;;;;;;;;;;;;;;;5.92;60.70;98371.44;7390838;19;19911;-71
2023/03/02 09:48:23;;;;;;;;;;;;;;;5.85;60.77;98376.38;7386440;19;20368;-71
2023/03/02 09:51:08;;;;;;;;;;;;;;;5.88;61.22;98376.13;7389870;19;19935;-71
2023/03/02 09:53:37;;;;;;;;;;;;;;;5.93;61.29;98374.00;7385308;19;20409;-71
2023/03/02 09:56:07;;;;;;;;;;;;;;;6.29;61.63;98381.56;7391655;19;19922;-71
2023/03/02 09:58:34;;;;;;;;;;;;;;;6.62;60.92;98374.44;7388316;19;19927;-71
2023/03/02 10:01:02;;;;;;;;;;;;;;;6.96;59.28;98373.19;7390655;19;19926;-71
2023/03/02 10:03:34;;;;;;;;;;;;;;;7.18;57.75;98374.78;7385588;19;19925;-71
2023/03/02 10:06:01;;;;;;;;;;;;;;;7.53;57.98;98375.25;7386958;19;19918;-72
2023/03/02 10:08:28;;;;;;;;;;;;;;;7.09;57.53;98380.03;7389171;19;20046;-71
2023/03/02 10:10:56;;;;;;;;;;;;;;;7.33;57.61;98377.03;7391470;19;19925;-71
2023/03/02 10:13:35;;;;;;;;;;;;;;;7.19;57.10;98380.91;7386093;19;19922;-71
2023/03/02 10:16:20;;;;;;;;;;;;;;;7.35;56.77;98377.75;7389842;19;19952;-71
2023/03/02 10:18:58;;;;;;;;;;;;;;;7.44;57.35;98376.91;7394777;19;19918;-71
2023/03/02 10:21:36;;;;;;;;;;;;;;;7.60;57.18;98382.47;7386708;19;19930;-71
2023/03/02 10:24:14;;;;;;;;;;;;;;;7.59;54.59;98380.81;7382929;19;19978;-71
2023/03/02 10:26:41;;;;;;;;;;;;;;;7.36;55.55;98380.22;7388760;19;19928;-71
2023/03/02 10:29:21;;;;;;;;;;;;;;;7.68;56.38;98384.44;7394461;19;19919;-71
2023/03/02 10:31:51;;;;;;;;;;;;;;;7.88;56.17;98380.03;7392058;19;19915;-71
2023/03/02 10:34:18;;;;;;;;;;;;;;;7.91;54.53;98383.19;7385053;19;19910;-71
2023/03/02 10:36:46;;;;;;;;;;;;;;;8.17;54.41;98372.09;7392479;19;19915;-71
2023/03/02 10:39:13;;;;;;;;;;;;;;;8.78;54.51;98365.59;7387511;19;20259;-71
2023/03/02 10:41:42;;;;;;;;;;;;;;;9.25;51.69;98364.69;7387740;19;20438;-71
2023/03/02 10:44:13;;;;;;;;;;;;;;;9.48;50.66;98367.75;7388273;19;20339;-71
2023/03/02 10:46:41;;;;;;;;;;;;;;;9.29;51.39;98366.06;7385135;19;19919;-71
2023/03/02 10:49:26;;;;;;;;;;;;;;;9.54;50.95;98365.34;7393014;19;19933;-72
2023/03/02 10:52:00;;;;;;;;;;;;;;;9.34;50.27;98363.81;7390604;19;19925;-71
2023/03/02 10:54:28;;;;;;;;;;;;;;;9.13;50.97;98361.41;7385794;19;19914;-71
2023/03/02 10:56:59;;;;;;;;;;;;;;;9.08;52.16;98364.47;7388719;19;20322;-72
2023/03/02 10:59:26;;;;;;;;;;;;;;;8.72;52.13;98353.81;7385329;19;19926;-72
2023/03/02 11:02:01;;;;;;;;;;;;;;;8.59;53.09;98363.88;7388578;19;19947;-71
2023/03/02 11:04:28;;;;;;;;;;;;;;;8.86;54.14;98351.69;7384773;19;19910;-71
2023/03/02 11:06:57;;;;;;;;;;;;;;;9.18;52.04;98353.88;7392432;19;19935;-71
2023/03/02 11:09:24;;;;;;;;;;;;;;;9.42;51.76;98346.22;7384272;19;19990;-71
2023/03/02 11:11:52;;;;;;;;;;;;;;;9.65;51.99;98345.81;7386349;19;19939;-72
2023/03/02 11:14:19;;;;;;;;;;;;;;;9.57;51.29;98343.91;7379943;19;19910;-71
2023/03/02 11:16:45;;;;;;;;;;;;;;;9.12;51.65;98342.13;7389860;19;19978;-71
2023/03/02 11:19:16;;;;;;;;;;;;;;;9.35;53.27;98339.09;7390325;19;19992;-71
2023/03/02 11:21:45;;;;;;;;;;;;;;;9.84;51.95;98339.53;7386059;19;19915;-71
2023/03/02 11:24:15;;;;;;;;;;;;;;;9.78;50.75;98340.97;7384635;19;20300;-71
2023/03/02 11:27:14;;;;;;;;;;;;;;;10.26;51.06;98336.22;7389437;19;20245;-71
2023/03/02 11:29:43;;;;;;;;;;;;;;;10.01;50.12;98335.22;7382543;19;19918;-71
2023/03/02 11:32:21;;;;;;;;;;;;;;;10.14;49.05;98330.38;7383341;19;19914;-71
2023/03/02 11:34:48;;;;;;;;;;;;;;;10.08;49.59;98325.69;7388278;19;19923;-71
2023/03/02 11:37:22;;;;;;;;;;;;;;;10.18;50.52;98337.00;7389772;19;19926;-72
2023/03/02 11:39:48;;;;;;;;;;;;;;;10.05;49.00;98331.28;7388268;19;19926;-72
2023/03/02 11:42:24;;;;;;;;;;;;;;;10.09;49.98;98328.19;7382822;19;19960;-72
2023/03/02 11:44:51;;;;;;;;;;;;;;;10.46;48.84;98332.44;7384992;19;19922;-72
2023/03/02 11:47:17;;;;;;;;;;;;;;;10.49;48.21;98334.78;7387608;19;19915;-72
2023/03/02 11:49:45;;;;;;;;;;;;;;;10.70;48.79;98330.91;7386297;19;19933;-72
2023/03/02 11:52:19;;;;;;;;;;;;;;;10.43;47.94;98324.81;7379468;19;19919;-72
2023/03/02 11:54:56;;;;;;;;;;;;;;;9.67;50.18;98325.38;7386618;19;19914;-71
2023/03/02 11:57:30;;;;;;;;;;;;;;;9.87;49.80;98320.72;7379654;19;19923;-72
2023/03/02 11:59:57;;;;;;;;;;;;;;;10.21;49.87;98322.66;7382692;19;20339;-72
2023/03/02 12:02:24;;;;;;;;;;;;;;;10.09;49.35;98322.09;7380083;19;20304;-72
2023/03/02 12:05:00;;;;;;;;;;;;;;;10.13;49.39;98319.94;7382307;19;20388;-72
2023/03/02 12:07:27;;;;;;;;;;;;;;;9.76;50.09;98318.34;7385669;19;20410;-72
2023/03/02 12:10:00;;;;;;;;;;;;;;;10.12;49.83;98316.47;7389608;19;19936;-72
2023/03/02 12:12:40;;;;;;;;;;;;;;;10.68;48.90;98322.31;7385360;19;19926;-72
2023/03/02 12:15:25;;;;;;;;;;;;;;;11.26;48.11;98318.88;7390736;19;20271;-72
2023/03/02 12:17:52;;;;;;;;;;;;;;;10.85;47.41;98315.25;7391428;19;19921;-72
2023/03/02 12:20:18;;;;;;;;;;;;;;;10.67;48.19;98310.91;7387337;19;19931;-72
2023/03/02 12:22:45;;;;;;;;;;;;;;;10.81;48.18;98308.66;7381087;19;19962;-72
2023/03/02 12:25:17;;;;;;;;;;;;;;;10.59;48.62;98312.69;7388291;19;19918;-72
2023/03/02 12:27:45;;;;;;;;;;;;;;;10.50;48.96;98301.22;7386327;19;19921;-71
2023/03/02 12:30:14;;;;;;;;;;;;;;;10.67;48.06;98299.50;7384641;19;19925;-71
2023/03/02 12:32:47;;;;;;;;;;;;;;;10.59;49.82;98307.41;7383294;19;19922;-71
2023/03/02 12:35:15;;;;;;;;;;;;;;;10.67;48.64;98305.59;7390199;19;19983;-71
2023/03/02 12:37:41;;;;;;;;;;;;;;;10.05;49.54;98295.09;7382682;19;20297;-71
2023/03/02 12:40:23;;;;;;;;;;;;;;;9.86;50.39;98296.13;7387045;19;19918;-71
2023/03/02 12:43:09;;;;;;;;;;;;;;;10.17;49.67;98294.88;7385310;19;19941;-71
2023/03/02 12:45:35;;;;;;;;;;;;;;;10.25;49.27;98298.41;7381936;19;20411;-71
2023/03/02 12:48:14;;;;;;;;;;;;;;;10.26;49.71;98286.00;7386308;19;19978;-71
2023/03/02 12:50:41;;;;;;;;;;;;;;;10.24;49.89;98287.97;7383144;19;19918;-71
2023/03/02 12:53:14;;;;;;;;;;;;;;;10.13;49.83;98281.13;7379179;19;19926;-71
2023/03/02 12:55:40;;;;;;;;;;;;;;;10.24;50.73;98283.53;7382904;19;19918;-71
2023/03/02 12:58:14;;;;;;;;;;;;;;;10.21;50.72;98278.53;7381579;19;20263;-72
2023/03/02 13:00:47;;;;;;;;;;;;;;;10.32;51.23;98280.97;7380147;19;19919;-71